createdAt,value
2018-06-21T00:01:07.131Z,26.20
2018-06-21T00:03:36.205Z,26.10
2018-06-21T00:06:05.472Z,26.10
2018-06-21T00:08:34.534Z,26.10
2018-06-21T00:11:04.044Z,26.10
2018-06-21T00:13:33.104Z,26.00
2018-06-21T00:16:02.248Z,26.00
2018-06-21T00:18:31.336Z,26.00
2018-06-21T00:21:00.448Z,26.10
2018-06-21T00:23:29.608Z,26.00
2018-06-21T00:25:58.709Z,25.90
2018-06-21T00:28:27.880Z,25.90
2018-06-21T00:30:57.016Z,25.90
2018-06-21T00:33:26.153Z,25.90
2018-06-21T00:35:55.267Z,25.90
2018-06-21T00:38:24.357Z,25.90
2018-06-21T00:40:53.788Z,25.80
2018-06-21T00:43:22.915Z,25.70
2018-06-21T00:45:52.196Z,25.70
2018-06-21T00:48:21.302Z,25.70
2018-06-21T00:50:50.387Z,25.70
2018-06-21T00:53:19.457Z,25.60
2018-06-21T00:55:59.992Z,25.30
2018-06-21T00:58:29.424Z,25.00
2018-06-21T01:00:58.480Z,24.90
2018-06-21T01:03:27.655Z,25.10
2018-06-21T01:05:56.708Z,25.00
2018-06-21T01:08:26.269Z,25.20
2018-06-21T01:10:55.300Z,25.30
2018-06-21T01:13:24.375Z,25.20
2018-06-21T01:15:53.455Z,25.20
2018-06-21T01:18:22.602Z,25.20
2018-06-21T01:20:51.668Z,25.10
2018-06-21T01:23:20.736Z,25.20
2018-06-21T01:25:50.023Z,25.10
2018-06-21T01:28:19.108Z,25.10
2018-06-21T01:30:48.653Z,25.00
2018-06-21T01:33:17.717Z,25.10
2018-06-21T01:35:46.829Z,25.10
2018-06-21T01:38:15.912Z,25.20
2018-06-21T01:40:45.008Z,25.10
2018-06-21T01:43:14.023Z,24.90
2018-06-21T01:45:43.136Z,24.80
2018-06-21T01:48:12.206Z,24.80
2018-06-21T01:50:41.543Z,24.80
2018-06-21T01:53:10.589Z,24.60
2018-06-21T01:55:39.646Z,24.70
2018-06-21T01:58:08.685Z,24.60
2018-06-21T02:00:37.729Z,24.60
2018-06-21T02:03:06.868Z,24.60
2018-06-21T02:05:36.036Z,24.70
2018-06-21T02:08:05.170Z,24.60
2018-06-21T02:10:34.199Z,24.70
2018-06-21T02:15:32.160Z,24.80
2018-06-21T02:18:01.491Z,24.70
2018-06-21T02:20:30.537Z,24.50
2018-06-21T02:22:59.589Z,24.60
2018-06-21T02:25:28.736Z,24.50
2018-06-21T02:27:57.828Z,24.50
2018-06-21T02:30:26.896Z,24.50
2018-06-21T02:32:56.229Z,24.50
2018-06-21T02:35:25.324Z,24.50
2018-06-21T02:37:54.368Z,24.50
2018-06-21T02:40:24.321Z,24.50
2018-06-21T02:42:53.721Z,24.40
2018-06-21T02:45:22.774Z,24.40
2018-06-21T02:47:51.874Z,24.50
2018-06-21T02:50:20.921Z,24.50
2018-06-21T02:52:50.056Z,24.50
2018-06-21T02:55:19.117Z,24.50
2018-06-21T02:57:48.378Z,24.40
2018-06-21T03:00:17.496Z,24.40
2018-06-21T03:02:46.736Z,24.40
2018-06-21T03:05:15.788Z,24.40
2018-06-21T03:07:44.924Z,24.40
2018-06-21T03:10:13.981Z,24.30
2018-06-21T03:12:43.078Z,24.30
2018-06-21T03:15:12.138Z,24.30
2018-06-21T03:17:41.311Z,24.30
2018-06-21T03:20:10.362Z,24.40
2018-06-21T03:22:39.541Z,24.40
2018-06-21T03:25:08.684Z,24.30
2018-06-21T03:27:37.772Z,24.30
2018-06-21T03:30:06.843Z,24.30
2018-06-21T03:32:35.875Z,24.20
2018-06-21T03:35:05.134Z,24.20
2018-06-21T03:37:34.208Z,24.20
2018-06-21T03:40:03.412Z,24.20
2018-06-21T03:42:33.478Z,24.20
2018-06-21T03:45:02.740Z,24.10
2018-06-21T03:47:31.761Z,24.20
2018-06-21T03:50:00.919Z,24.20
2018-06-21T03:52:29.916Z,24.20
2018-06-21T03:54:58.984Z,24.20
2018-06-21T03:57:28.022Z,24.20
2018-06-21T03:59:57.183Z,24.20
2018-06-21T04:02:26.263Z,24.20
2018-06-21T04:04:55.699Z,24.10
2018-06-21T04:07:24.749Z,24.20
2018-06-21T04:09:53.906Z,24.20
2018-06-21T04:12:22.931Z,24.20
2018-06-21T04:14:52.884Z,24.10
2018-06-21T04:17:21.941Z,24.20
2018-06-21T04:19:51.039Z,24.20
2018-06-21T04:22:20.076Z,24.30
2018-06-21T04:24:49.252Z,24.30
2018-06-21T04:27:18.305Z,24.30
2018-06-21T04:29:47.616Z,24.30
2018-06-21T04:32:16.710Z,24.40
2018-06-21T04:34:45.865Z,24.40
2018-06-21T04:37:14.944Z,24.40
2018-06-21T04:39:44.275Z,24.40
2018-06-21T04:42:13.336Z,24.50
2018-06-21T04:44:42.428Z,24.60
2018-06-21T04:47:11.511Z,24.60
2018-06-21T04:49:40.636Z,24.70
2018-06-21T04:52:09.778Z,24.80
2018-06-21T04:54:38.840Z,24.90
2018-06-21T04:57:07.945Z,24.80
2018-06-21T04:59:37.056Z,24.30
2018-06-21T05:02:06.673Z,24.10
2018-06-21T05:04:35.941Z,24.10
2018-06-21T05:07:05.057Z,24.30
2018-06-21T05:09:34.225Z,24.00
2018-06-21T05:12:03.311Z,24.20
2018-06-21T05:14:32.469Z,24.40
2018-06-21T05:17:01.592Z,24.50
2018-06-21T05:19:30.625Z,24.20
2018-06-21T05:21:59.677Z,23.90
2018-06-21T05:24:28.854Z,23.70
2018-06-21T05:26:57.945Z,23.80
2018-06-21T05:29:27.199Z,23.70
2018-06-21T05:31:56.268Z,23.90
2018-06-21T05:34:25.346Z,24.00
2018-06-21T05:36:54.425Z,23.90
2018-06-21T05:39:23.470Z,23.80
2018-06-21T05:41:52.570Z,23.80
2018-06-21T05:44:21.820Z,24.10
2018-06-21T05:46:50.844Z,23.90
2018-06-21T05:49:20.025Z,24.00
2018-06-21T05:51:49.052Z,24.00
2018-06-21T05:54:18.317Z,24.00
2018-06-21T05:56:47.413Z,24.10
2018-06-21T05:59:16.636Z,24.00
2018-06-21T06:01:45.816Z,24.00
2018-06-21T06:06:43.588Z,24.10
2018-06-21T06:09:13.069Z,24.40
2018-06-21T06:11:42.181Z,24.30
2018-06-21T06:14:11.452Z,24.60
2018-06-21T06:16:40.528Z,24.70
2018-06-21T06:19:09.990Z,25.00
2018-06-21T06:21:39.058Z,24.80
2018-06-21T06:24:08.176Z,24.40
2018-06-21T06:26:37.589Z,24.70
2018-06-21T06:29:06.620Z,24.90
2018-06-21T06:31:35.693Z,25.10
2018-06-21T06:34:05.098Z,24.80
2018-06-21T06:36:34.202Z,24.50
2018-06-21T06:39:13.888Z,24.70
2018-06-21T06:41:43.012Z,24.80
2018-06-21T06:44:12.225Z,24.80
2018-06-21T06:46:41.404Z,25.00
2018-06-21T06:49:10.987Z,24.90
2018-06-21T06:51:40.688Z,25.30
2018-06-21T06:54:10.839Z,25.30
2018-06-21T06:56:39.920Z,25.30
2018-06-21T06:59:09.080Z,25.10
2018-06-21T07:01:38.144Z,25.30
2018-06-21T07:04:10.286Z,25.60
2018-06-21T07:06:39.385Z,25.60
2018-06-21T07:09:09.179Z,25.80
2018-06-21T07:11:38.528Z,25.80
2018-06-21T07:14:07.598Z,25.90
2018-06-21T07:16:36.986Z,25.60
2018-06-21T07:19:06.480Z,25.50
2018-06-21T07:21:38.320Z,25.40
2018-06-21T07:24:07.948Z,25.00
2018-06-21T07:26:37.967Z,25.30
2018-06-21T07:29:07.575Z,25.70
2018-06-21T07:31:37.707Z,25.60
2018-06-21T07:34:06.756Z,25.30
2018-06-21T07:36:35.802Z,25.00
2018-06-21T07:39:07.784Z,25.50
2018-06-21T07:41:37.126Z,25.60
2018-06-21T07:44:06.363Z,25.70
2018-06-21T07:46:35.824Z,25.70
2018-06-21T07:49:04.859Z,25.40
2018-06-21T07:51:34.017Z,25.50
2018-06-21T07:54:03.092Z,25.90
2018-06-21T07:56:32.314Z,25.70
2018-06-21T07:59:01.464Z,25.60
2018-06-21T08:01:30.818Z,25.50
2018-06-21T08:03:59.902Z,25.70
2018-06-21T08:06:29.204Z,25.60
2018-06-21T08:08:58.274Z,25.70
2018-06-21T08:11:27.368Z,25.90
2018-06-21T08:13:56.420Z,25.60
2018-06-21T08:16:25.487Z,25.40
2018-06-21T08:23:51.899Z,25.40
2018-06-21T08:26:20.937Z,25.70
2018-06-21T08:28:50.081Z,25.90
2018-06-21T08:31:19.288Z,26.20
2018-06-21T08:33:48.429Z,26.00
2018-06-21T08:36:17.512Z,26.10
2018-06-21T08:38:47.052Z,26.00
2018-06-21T08:41:16.080Z,25.80
2018-06-21T08:43:45.187Z,25.70
2018-06-21T08:46:14.345Z,25.90
2018-06-21T08:48:44.316Z,26.10
2018-06-21T08:51:13.556Z,25.80
2018-06-21T08:53:42.714Z,25.60
2018-06-21T08:56:11.970Z,25.60
2018-06-21T08:58:41.045Z,25.80
2018-06-21T09:01:10.141Z,25.60
2018-06-21T09:03:39.204Z,25.60
2018-06-21T09:06:08.622Z,25.70
2018-06-21T09:08:38.009Z,25.50
2018-06-21T09:11:07.094Z,25.50
2018-06-21T09:13:37.340Z,25.90
2018-06-21T09:16:08.454Z,25.90
2018-06-21T09:18:37.588Z,25.90
2018-06-21T09:21:06.684Z,26.20
2018-06-21T09:23:35.851Z,26.20
2018-06-21T09:26:05.092Z,26.30
2018-06-21T09:28:34.264Z,25.90
2018-06-21T09:31:03.284Z,26.10
2018-06-21T09:33:32.392Z,26.40
2018-06-21T09:36:01.509Z,26.80
2018-06-21T09:39:34.717Z,26.70
2018-06-21T09:42:09.351Z,26.70
2018-06-21T09:44:42.698Z,26.50
2018-06-21T09:47:17.516Z,26.50
2018-06-21T09:49:46.797Z,26.60
2018-06-21T09:52:15.876Z,26.60
2018-06-21T09:54:45.088Z,26.60
2018-06-21T09:59:42.929Z,26.90
2018-06-21T10:02:11.960Z,26.80
2018-06-21T10:04:41.060Z,26.60
2018-06-21T10:07:10.387Z,26.70
2018-06-21T10:09:39.406Z,26.60
2018-06-21T10:12:08.746Z,26.50
2018-06-21T10:14:37.772Z,26.60
2018-06-21T10:17:09.179Z,26.40
2018-06-21T10:19:39.813Z,26.60
2018-06-21T10:22:08.898Z,26.70
2018-06-21T10:24:38.607Z,26.60
2018-06-21T10:27:07.685Z,26.60
2018-06-21T10:29:36.772Z,26.60
2018-06-21T10:32:05.859Z,26.60
2018-06-21T10:34:34.917Z,26.70
2018-06-21T10:37:04.132Z,26.60
2018-06-21T10:39:33.187Z,26.90
2018-06-21T10:42:02.344Z,26.60
2018-06-21T10:44:31.462Z,26.80
2018-06-21T10:47:00.864Z,26.90
2018-06-21T10:49:29.955Z,26.80
2018-06-21T10:51:59.101Z,26.70
2018-06-21T10:54:28.211Z,26.90
2018-06-21T10:56:57.641Z,26.80
2018-06-21T10:59:26.703Z,26.90
2018-06-21T11:01:56.160Z,26.80
2018-06-21T11:04:25.228Z,26.60
2018-06-21T11:06:54.371Z,26.90
2018-06-21T11:09:23.405Z,26.90
2018-06-21T11:11:52.837Z,26.90
2018-06-21T11:14:21.910Z,27.10
2018-06-21T11:16:51.183Z,27.00
2018-06-21T11:19:20.312Z,27.20
2018-06-21T11:21:49.533Z,26.80
2018-06-21T11:24:18.589Z,26.60
2018-06-21T11:26:47.724Z,26.70
2018-06-21T11:29:16.770Z,27.00
2018-06-21T11:31:45.890Z,27.10
2018-06-21T11:34:14.991Z,26.90
2018-06-21T11:36:44.088Z,26.40
2018-06-21T11:39:13.153Z,26.30
2018-06-21T11:41:42.272Z,26.00
2018-06-21T11:44:11.324Z,25.70
2018-06-21T11:46:40.423Z,25.50
2018-06-21T11:49:09.477Z,25.30
2018-06-21T11:51:39.387Z,25.30
2018-06-21T11:54:08.537Z,25.00
2018-06-21T11:56:37.898Z,25.00
2018-06-21T11:59:06.948Z,24.90
2018-06-21T12:06:33.588Z,25.00
2018-06-21T12:09:02.867Z,24.70
2018-06-21T12:11:31.920Z,24.80
2018-06-21T12:14:00.987Z,24.70
2018-06-21T12:16:30.059Z,24.90
2018-06-21T12:18:59.120Z,24.90
2018-06-21T12:21:28.168Z,24.70
2018-06-21T12:23:57.288Z,24.40
2018-06-21T12:26:26.436Z,24.30
2018-06-21T12:28:55.457Z,24.50
2018-06-21T12:31:24.570Z,24.70
2018-06-21T12:33:54.028Z,24.70
2018-06-21T12:36:23.149Z,24.80
2018-06-21T12:38:52.192Z,24.80
2018-06-21T12:41:21.295Z,24.90
2018-06-21T12:43:50.360Z,25.00
2018-06-21T12:46:19.651Z,25.30
2018-06-21T12:48:48.700Z,25.50
2018-06-21T12:51:18.009Z,25.40
2018-06-21T12:56:16.105Z,25.70
2018-06-21T12:58:45.182Z,25.70
2018-06-21T13:01:14.435Z,25.60
2018-06-21T13:03:43.473Z,25.30
2018-06-21T13:06:12.621Z,25.30
2018-06-21T13:08:53.014Z,25.60
2018-06-21T13:11:33.059Z,25.70
2018-06-21T13:14:13.709Z,25.90
2018-06-21T13:16:43.136Z,26.10
2018-06-21T13:19:12.193Z,25.90
2018-06-21T13:21:41.276Z,25.50
2018-06-21T13:24:10.522Z,25.40
2018-06-21T13:26:39.561Z,25.70
2018-06-21T13:29:08.666Z,25.90
2018-06-21T13:31:37.729Z,26.10
2018-06-21T13:34:06.804Z,26.30
2018-06-21T13:36:35.845Z,26.50
2018-06-21T13:39:06.800Z,26.40
2018-06-21T13:41:35.876Z,26.30
2018-06-21T13:44:05.420Z,26.50
2018-06-21T13:46:34.482Z,26.40
2018-06-21T13:49:03.525Z,26.20
2018-06-21T13:51:32.596Z,26.10
2018-06-21T13:54:02.570Z,26.20
2018-06-21T13:56:31.657Z,26.40
2018-06-21T13:59:01.627Z,26.40
2018-06-21T14:01:30.701Z,26.50
2018-06-21T14:03:59.976Z,26.40
2018-06-21T14:06:29.076Z,26.40
2018-06-21T14:08:58.298Z,26.40
2018-06-21T14:11:27.397Z,26.60
2018-06-21T14:13:57.809Z,26.50
2018-06-21T14:16:26.884Z,26.40
2018-06-21T14:18:55.938Z,26.60
2018-06-21T14:23:54.307Z,27.00
2018-06-21T14:26:23.497Z,27.10
2018-06-21T14:28:52.590Z,27.00
2018-06-21T14:31:22.407Z,27.00
2018-06-21T14:33:51.810Z,27.00
2018-06-21T14:36:20.849Z,27.30
2018-06-21T14:38:50.009Z,27.10
2018-06-21T14:41:19.401Z,27.20
2018-06-21T14:43:48.555Z,27.30
2018-06-21T14:46:17.705Z,27.70
2018-06-21T14:48:46.918Z,27.40
2018-06-21T14:51:16.024Z,27.50
2018-06-21T14:53:45.216Z,27.50
2018-06-21T14:56:14.359Z,27.60
2018-06-21T14:58:44.085Z,27.50
2018-06-21T15:03:41.977Z,27.80
2018-06-21T15:06:11.022Z,30.60
2018-06-21T15:11:08.952Z,31.80
2018-06-21T15:13:38.045Z,34.10
2018-06-21T15:16:07.087Z,34.30
2018-06-21T15:18:36.175Z,36.50
2018-06-21T15:21:05.434Z,38.10
2018-06-21T15:23:34.484Z,36.80
2018-06-21T15:26:03.674Z,35.10
2018-06-21T15:28:32.728Z,34.70
2018-06-21T15:31:01.911Z,36.20
2018-06-21T15:33:32.019Z,36.20
2018-06-21T15:36:01.084Z,36.10
2018-06-21T15:38:30.156Z,35.40
2018-06-21T15:40:59.220Z,35.70
2018-06-21T15:43:28.416Z,33.80
2018-06-21T15:45:57.511Z,33.40
2018-06-21T15:48:26.611Z,31.70
2018-06-21T15:51:02.097Z,31.60
2018-06-21T15:53:31.308Z,30.90
2018-06-21T15:56:00.404Z,30.20
2018-06-21T15:58:29.598Z,29.80
2018-06-21T16:00:58.800Z,29.90
2018-06-21T16:03:27.871Z,29.60
2018-06-21T16:05:57.170Z,29.00
2018-06-21T16:08:26.393Z,28.70
2018-06-21T16:10:55.910Z,28.30
2018-06-21T16:13:25.228Z,28.30
2018-06-21T16:15:54.352Z,28.20
2018-06-21T16:18:23.665Z,27.60
2018-06-21T16:20:52.821Z,27.60
2018-06-21T16:23:21.909Z,27.60
2018-06-21T16:25:50.956Z,27.30
2018-06-21T16:28:20.083Z,27.00
2018-06-21T16:35:46.624Z,26.50
2018-06-21T16:38:15.678Z,26.60
2018-06-21T16:43:13.408Z,26.30
2018-06-21T16:55:37.480Z,25.80
2018-06-21T16:58:06.532Z,25.30
2018-06-21T17:00:35.563Z,25.30
2018-06-21T17:03:04.656Z,25.50
2018-06-21T17:05:33.899Z,25.50
2018-06-21T17:08:03.047Z,25.60
2018-06-21T17:10:32.175Z,25.50
2018-06-21T17:13:01.512Z,25.30
2018-06-21T17:15:30.631Z,25.50
2018-06-21T17:17:59.713Z,25.40
2018-06-21T17:20:28.789Z,25.00
2018-06-21T17:22:57.936Z,25.00
2018-06-21T17:25:27.001Z,24.80
2018-06-21T17:27:56.173Z,24.80
2018-06-21T17:30:25.245Z,24.70
2018-06-21T17:32:54.384Z,24.60
2018-06-21T17:35:23.544Z,24.70
2018-06-21T17:37:52.809Z,24.20
2018-06-21T17:40:21.884Z,24.20
2018-06-21T17:42:51.145Z,24.40
2018-06-21T17:45:20.467Z,24.30
2018-06-21T17:47:49.548Z,24.40
2018-06-21T17:50:18.688Z,24.30
2018-06-21T17:52:47.843Z,24.20
2018-06-21T17:55:16.941Z,24.00
2018-06-21T17:57:46.155Z,23.60
2018-06-21T18:00:15.184Z,23.50
2018-06-21T18:02:44.315Z,23.50
2018-06-21T18:05:13.478Z,23.50
2018-06-21T18:07:42.784Z,23.70
2018-06-21T18:10:11.924Z,23.50
2018-06-21T18:12:41.136Z,23.50
2018-06-21T18:15:10.597Z,23.50
2018-06-21T18:17:39.825Z,23.30
2018-06-21T18:20:08.944Z,23.20
2018-06-21T18:22:38.041Z,23.20
2018-06-21T18:25:07.286Z,23.00
2018-06-21T18:27:36.449Z,22.90
2018-06-21T18:30:05.651Z,23.20
2018-06-21T18:32:34.793Z,23.10
2018-06-21T18:35:04.148Z,22.80
2018-06-21T18:37:33.256Z,22.50
2018-06-21T18:40:02.419Z,22.40
2018-06-21T18:42:31.474Z,22.70
2018-06-21T18:45:00.724Z,22.70
2018-06-21T18:47:29.836Z,22.70
2018-06-21T18:49:59.052Z,22.70
2018-06-21T18:52:28.206Z,22.60
2018-06-21T18:54:57.341Z,22.70
2018-06-21T18:57:26.360Z,22.70
2018-06-21T18:59:55.570Z,22.60
2018-06-21T19:02:24.624Z,22.60
2018-06-21T19:04:54.258Z,22.40
2018-06-21T19:17:32.067Z,22.20
2018-06-21T19:20:01.335Z,22.00
2018-06-21T19:22:30.520Z,21.80
2018-06-21T19:24:59.653Z,21.60
2018-06-21T19:27:29.018Z,21.50
2018-06-21T20:39:44.341Z,21.40
2018-06-21T20:42:13.448Z,20.60
2018-06-21T20:44:42.680Z,20.60
2018-06-21T20:47:11.868Z,20.30
2018-06-21T20:49:40.971Z,20.30
2018-06-21T20:52:14.397Z,20.30
2018-06-21T20:54:43.606Z,20.10
2018-06-21T20:57:12.837Z,19.90
2018-06-21T20:59:42.360Z,20.10
2018-06-21T21:02:11.708Z,19.90
2018-06-21T21:05:16.772Z,19.80
2018-06-21T21:07:47.196Z,19.70
2018-06-21T21:32:37.357Z,19.70
2018-06-21T21:35:06.544Z,19.50
2018-06-21T21:37:35.660Z,19.50
2018-06-21T21:40:05.995Z,19.30
2018-06-21T21:54:59.860Z,19.20
2018-06-21T21:57:28.934Z,19.00
2018-06-21T21:59:57.949Z,19.10
2018-06-21T22:02:27.056Z,19.00
2018-06-21T22:04:56.104Z,18.90
2018-06-21T22:07:25.210Z,19.00
2018-06-21T22:09:54.320Z,18.80
2018-06-21T22:12:23.369Z,18.70
2018-06-21T22:14:53.203Z,18.80
2018-06-21T22:17:22.278Z,18.80
2018-06-21T22:19:51.369Z,18.80
2018-06-21T22:22:20.561Z,18.60
2018-06-21T22:24:50.017Z,18.40
2018-06-21T22:27:19.128Z,18.60
2018-06-21T22:29:48.214Z,18.60
2018-06-21T22:32:17.396Z,18.60
2018-06-21T22:34:46.650Z,18.30
2018-06-21T22:37:15.736Z,18.40
2018-06-21T22:39:45.301Z,18.50
2018-06-21T22:42:14.362Z,18.30
2018-06-21T22:44:43.489Z,18.30
2018-06-21T22:47:12.560Z,18.30
2018-06-21T22:49:41.580Z,18.10
2018-06-21T22:52:10.676Z,18.00
2018-06-21T22:54:39.889Z,17.90
2018-06-21T22:57:08.936Z,18.10
2018-06-21T22:59:38.030Z,18.10
2018-06-21T23:02:07.265Z,18.20
2018-06-21T23:04:36.364Z,18.00
2018-06-21T23:07:05.476Z,17.90
2018-06-21T23:09:34.630Z,18.00
2018-06-21T23:12:03.661Z,18.00
2018-06-21T23:14:32.732Z,17.70
2018-06-21T23:17:01.829Z,17.60
2018-06-21T23:19:31.936Z,17.50
2018-06-21T23:22:02.003Z,17.60
2018-06-21T23:24:31.060Z,17.40
2018-06-21T23:27:00.245Z,17.40
2018-06-21T23:29:29.284Z,17.30
2018-06-21T23:31:58.458Z,17.40
2018-06-21T23:34:27.544Z,17.30
2018-06-21T23:36:56.712Z,17.30
2018-06-21T23:39:25.782Z,17.50
2018-06-21T23:41:54.897Z,17.50
2018-06-21T23:44:23.994Z,17.60
2018-06-21T23:46:53.116Z,17.30
2018-06-21T23:49:22.213Z,17.30
2018-06-21T23:51:54.571Z,17.40
2018-06-21T23:54:24.268Z,17.40
2018-06-21T23:56:53.433Z,17.30
2018-06-21T23:59:22.512Z,17.30
